Time;durP1;ratioP1;P1;durP2;ratioP2;P2;SDS_P1;SDS_P2;PMS_P1;PMS_P2;Temp;Humidity;BMP_temperature;BMP_pressure;BME280_temperature;BME280_humidity;BME280_pressure;Samples;Min_cycle;Max_cycle;Signal;HPM_P1;HPM_P2
2022/12/08 00:01:31;;;;;;;36.07;26.90;;;2.90;99.90;;;;;;5032474;28;20210;-67
2022/12/08 00:04:00;;;;;;;39.73;26.87;;;3.00;99.90;;;;;;5048909;28;20781;-67
2022/12/08 00:09:33;;;;;;;39.37;26.17;;;3.00;99.90;;;;;;5035965;28;20199;-68
2022/12/08 00:12:06;;;;;;;37.27;26.23;;;3.10;99.90;;;;;;5039736;28;20726;-66
2022/12/08 00:14:36;;;;;;;34.90;26.43;;;3.10;99.90;;;;;;5038822;28;20242;-67
2022/12/08 00:17:05;;;;;;;36.77;26.77;;;3.10;99.90;;;;;;5040096;28;20203;-66
2022/12/08 00:19:33;;;;;;;37.83;26.23;;;3.10;99.90;;;;;;5054331;28;20219;-66
2022/12/08 00:22:00;;;;;;;41.57;26.13;;;3.10;99.90;;;;;;5022135;28;20207;-66
2022/12/08 00:24:38;;;;;;;36.77;26.47;;;3.20;99.90;;;;;;5036686;28;20891;-67
2022/12/08 00:27:08;;;;;;;34.23;25.67;;;3.30;99.90;;;;;;5038371;28;20192;-66
2022/12/08 00:29:35;;;;;;;39.17;26.13;;;3.30;99.90;;;;;;5036398;28;20200;-68
2022/12/08 00:32:02;;;;;;;43.03;25.57;;;3.30;99.90;;;;;;5035670;28;21064;-67
2022/12/08 00:34:31;;;;;;;40.13;25.73;;;3.40;99.90;;;;;;5045471;28;20246;-66
2022/12/08 00:36:58;;;;;;;41.63;25.37;;;3.40;99.90;;;;;;5036537;28;20255;-66
2022/12/08 00:39:25;;;;;;;33.13;24.43;;;3.40;99.90;;;;;;5038265;28;20196;-72
2022/12/08 00:44:42;;;;;;;39.30;28.37;;;3.50;99.90;;;;;;5036987;28;20203;-65
2022/12/08 00:47:09;;;;;;;40.40;25.07;;;3.50;99.90;;;;;;5051571;28;20249;-65
2022/12/08 00:49:36;;;;;;;41.70;27.93;;;3.50;99.90;;;;;;5037323;28;20220;-65
2022/12/08 00:52:04;;;;;;;38.23;24.77;;;3.50;99.90;;;;;;5051526;28;20580;-66
2022/12/08 00:54:31;;;;;;;33.33;23.27;;;3.40;99.90;;;;;;5052283;28;20204;-66
2022/12/08 00:56:58;;;;;;;31.70;22.90;;;3.40;99.90;;;;;;5026411;28;20311;-65
2022/12/08 00:59:25;;;;;;;31.83;21.67;;;3.40;99.90;;;;;;5049987;28;20192;-66
2022/12/08 01:01:51;;;;;;;28.80;21.43;;;3.40;99.90;;;;;;5037094;28;20310;-65
2022/12/08 01:04:19;;;;;;;31.53;22.27;;;3.40;99.90;;;;;;5037811;28;20220;-65
2022/12/08 01:06:47;;;;;;;31.73;20.93;;;3.50;99.90;;;;;;5054346;28;20608;-65
2022/12/08 01:09:15;;;;;;;31.63;20.70;;;3.50;99.90;;;;;;5057344;28;20191;-65
2022/12/08 01:11:43;;;;;;;28.07;21.10;;;3.50;99.90;;;;;;5056232;28;20675;-66
2022/12/08 01:14:11;;;;;;;30.27;20.50;;;3.50;99.90;;;;;;5054760;28;20200;-65
2022/12/08 01:16:40;;;;;;;35.40;22.83;;;3.50;98.70;;;;;;5056161;28;20195;-67
2022/12/08 01:19:10;;;;;;;29.60;22.50;;;3.50;96.20;;;;;;5045897;28;20197;-67
2022/12/08 01:21:39;;;;;;;34.53;22.60;;;3.50;93.20;;;;;;5055015;28;20199;-66
2022/12/08 01:24:09;;;;;;;32.63;22.00;;;3.50;94.90;;;;;;5044908;28;20195;-66
2022/12/08 01:26:36;;;;;;;33.97;23.90;;;3.60;96.90;;;;;;5049169;28;20225;-67
2022/12/08 01:29:03;;;;;;;38.03;25.50;;;3.60;90.50;;;;;;5045350;28;20655;-66
2022/12/08 01:31:30;;;;;;;38.77;24.20;;;3.60;74.90;;;;;;5056149;28;20278;-68
2022/12/08 01:33:57;;;;;;;33.73;22.87;;;3.60;71.30;;;;;;5058376;28;20243;-67
2022/12/08 01:36:27;;;;;;;37.77;24.37;;;3.70;72.40;;;;;;5057526;28;20188;-66
2022/12/08 01:38:57;;;;;;;37.37;25.33;;;3.70;69.60;;;;;;5039245;28;20198;-66
2022/12/08 01:41:27;;;;;;;39.10;26.60;;;3.70;73.60;;;;;;5040275;28;20197;-66
2022/12/08 01:44:03;;;;;;;40.80;25.10;;;3.60;82.80;;;;;;5046183;28;20771;-67
2022/12/08 01:46:31;;;;;;;37.77;27.67;;;3.70;93.20;;;;;;5054730;28;20203;-66
2022/12/08 01:49:10;;;;;;;37.10;27.37;;;3.70;88.20;;;;;;5056145;28;20223;-65
2022/12/08 01:51:47;;;;;;;35.63;26.43;;;3.80;73.60;;;;;;5047177;28;20701;-66
2022/12/08 01:54:15;;;;;;;40.63;29.37;;;3.80;67.00;;;;;;5056170;28;20211;-69
2022/12/08 01:57:10;;;;;;;49.27;30.00;;;3.80;63.70;;;;;;5054878;28;20203;-66
2022/12/08 01:59:45;;;;;;;43.50;31.53;;;3.80;67.50;;;;;;5055451;28;20779;-67
2022/12/08 02:02:12;;;;;;;45.50;30.17;;;3.90;45.10;;;;;;5053574;28;20281;-66
2022/12/08 02:04:40;;;;;;;44.47;29.87;;;3.90;37.00;;;;;;5037051;28;20573;-65
2022/12/08 02:07:08;;;;;;;44.20;30.37;;;3.90;21.60;;;;;;5046984;28;20239;-66
2022/12/08 02:09:38;;;;;;;42.20;28.90;;;4.00;19.10;;;;;;5039613;28;20221;-67
2022/12/08 02:12:06;;;;;;;41.87;29.47;;;4.00;14.00;;;;;;5054624;28;20195;-66
2022/12/08 02:14:34;;;;;;;45.20;29.73;;;4.00;2.00;;;;;;5055265;28;20477;-65
2022/12/08 02:17:09;;;;;;;39.23;29.27;;;4.00;3.70;;;;;;5058769;28;20198;-66
2022/12/08 02:20:13;;;;;;;43.67;30.53;;;4.00;1.00;;;;;;5058540;28;20193;-66
2022/12/08 02:23:20;;;;;;;45.00;31.53;;;4.00;1.00;;;;;;5048043;28;20554;-66
2022/12/08 02:26:23;;;;;;;38.37;27.43;;;4.00;1.00;;;;;;5038404;28;20293;-67
2022/12/08 02:29:22;;;;;;;39.33;26.37;;;4.00;1.00;;;;;;5038641;28;20296;-66
2022/12/08 02:31:58;;;;;;;38.50;27.67;;;4.00;1.00;;;;;;5047467;28;20215;-66
2022/12/08 02:34:28;;;;;;;38.07;28.57;;;4.00;1.00;;;;;;5057505;28;20739;-65
2022/12/08 02:37:27;;;;;;;45.60;27.77;;;4.00;1.00;;;;;;5057924;28;20249;-66
2022/12/08 02:40:09;;;;;;;39.63;27.10;;;4.00;1.00;;;;;;5051169;28;20198;-67
2022/12/08 02:42:47;;;;;;;34.50;24.63;;;4.00;1.00;;;;;;5055812;28;20273;-67
2022/12/08 02:45:30;;;;;;;30.83;24.53;;;4.00;1.00;;;;;;5054493;28;20195;-70
2022/12/08 02:47:58;;;;;;;33.73;25.50;;;4.00;1.00;;;;;;5055994;28;20190;-67
2022/12/08 02:50:28;;;;;;;34.23;23.93;;;4.00;1.00;;;;;;5057807;28;20225;-68
2022/12/08 02:52:56;;;;;;;30.10;23.47;;;4.00;1.00;;;;;;5038906;28;20196;-67
2022/12/08 02:55:36;;;;;;;36.83;23.07;;;4.00;1.00;;;;;;5056559;28;20213;-66
2022/12/08 02:58:21;;;;;;;35.40;23.73;;;4.00;1.00;;;;;;5058213;28;20191;-67
2022/12/08 03:01:26;;;;;;;29.53;23.23;;;4.10;1.00;;;;;;5052233;28;20257;-67
2022/12/08 03:04:10;;;;;;;28.60;22.43;;;4.00;1.00;;;;;;5054455;28;20211;-68
2022/12/08 03:06:56;;;;;;;32.30;21.43;;;4.00;1.00;;;;;;5058157;28;20270;-67
2022/12/08 03:09:40;;;;;;;26.93;22.43;;;4.00;1.00;;;;;;5039196;28;20757;-67
2022/12/08 03:12:30;;;;;;;32.13;22.10;;;4.00;1.00;;;;;;5044686;28;20218;-67
2022/12/08 03:15:02;;;;;;;36.80;22.63;;;4.00;1.00;;;;;;5059907;28;20223;-67
2022/12/08 03:17:31;;;;;;;29.47;22.23;;;4.00;1.00;;;;;;5047982;28;20197;-67
2022/12/08 03:20:01;;;;;;;28.60;21.93;;;4.00;1.00;;;;;;5040329;28;20187;-66
2022/12/08 03:22:30;;;;;;;31.63;22.63;;;4.00;1.00;;;;;;5062178;28;20204;-67
2022/12/08 03:24:57;;;;;;;28.40;22.07;;;4.10;1.00;;;;;;5058992;28;20199;-67
2022/12/08 03:27:27;;;;;;;32.67;22.10;;;4.10;1.00;;;;;;5061150;28;20193;-70
2022/12/08 03:29:56;;;;;;;30.07;21.27;;;4.00;1.00;;;;;;5034123;28;20727;-66
2022/12/08 03:32:35;;;;;;;33.13;22.00;;;4.00;1.00;;;;;;5041592;28;20199;-65
2022/12/08 03:35:07;;;;;;;29.73;21.27;;;4.00;1.00;;;;;;5059391;28;20293;-65
2022/12/08 03:37:38;;;;;;;32.00;22.77;;;4.00;1.00;;;;;;5042259;28;20560;-68
2022/12/08 03:40:09;;;;;;;33.70;22.63;;;4.00;1.00;;;;;;5059547;28;20191;-67
2022/12/08 03:42:36;;;;;;;29.00;22.13;;;4.00;1.00;;;;;;5058839;28;20195;-67
2022/12/08 03:45:04;;;;;;;31.87;24.37;;;4.00;1.00;;;;;;5059514;28;20780;-67
2022/12/08 03:47:31;;;;;;;34.53;23.20;;;4.00;1.00;;;;;;5060335;28;20320;-66
2022/12/08 03:49:58;;;;;;;31.57;24.30;;;4.00;1.00;;;;;;5059141;28;20203;-67
2022/12/08 03:52:25;;;;;;;29.67;23.20;;;4.00;1.00;;;;;;5059838;28;20685;-67
2022/12/08 03:54:52;;;;;;;33.63;24.70;;;4.00;1.00;;;;;;5058666;28;20202;-66
2022/12/08 03:57:20;;;;;;;35.73;25.67;;;4.00;1.00;;;;;;5059337;28;20226;-66
2022/12/08 03:59:47;;;;;;;35.13;25.37;;;3.90;1.00;;;;;;5057536;28;20245;-66
2022/12/08 04:02:14;;;;;;;42.33;29.20;;;3.90;1.00;;;;;;5056658;28;20184;-67
2022/12/08 04:04:41;;;;;;;34.67;26.13;;;4.00;1.00;;;;;;5049125;28;20254;-66
2022/12/08 04:07:09;;;;;;;36.93;27.33;;;3.90;1.00;;;;;;5041375;28;20312;-66
2022/12/08 04:09:35;;;;;;;34.67;26.57;;;4.00;1.00;;;;;;5037807;28;20637;-67
2022/12/08 04:12:03;;;;;;;37.63;26.43;;;4.00;1.00;;;;;;5037442;28;20220;-66
2022/12/08 04:14:30;;;;;;;34.47;26.60;;;4.00;1.00;;;;;;5037936;28;20215;-68
2022/12/08 04:16:57;;;;;;;37.00;27.73;;;3.90;1.00;;;;;;5040085;28;20207;-66
2022/12/08 04:19:24;;;;;;;36.97;27.07;;;3.90;1.00;;;;;;5038791;28;20208;-67
2022/12/08 04:21:51;;;;;;;43.60;29.20;;;3.90;1.00;;;;;;5035972;28;20188;-67
2022/12/08 04:24:18;;;;;;;37.57;27.27;;;3.90;1.00;;;;;;5038877;28;20206;-66
2022/12/08 04:26:45;;;;;;;37.07;27.17;;;3.90;1.00;;;;;;5035881;28;20207;-67
2022/12/08 04:29:12;;;;;;;36.47;27.27;;;3.90;1.00;;;;;;5038050;28;20203;-66
2022/12/08 04:31:39;;;;;;;38.87;26.67;;;3.90;1.00;;;;;;5029075;28;20243;-66
2022/12/08 04:34:06;;;;;;;39.60;28.57;;;3.90;2.60;;;;;;5034348;28;20674;-67
2022/12/08 04:36:33;;;;;;;43.37;28.70;;;3.90;4.10;;;;;;5047171;28;20227;-67
2022/12/08 04:39:00;;;;;;;42.03;28.83;;;3.90;10.00;;;;;;5037807;28;20199;-65
2022/12/08 04:41:27;;;;;;;45.03;27.80;;;3.90;5.30;;;;;;5038583;28;20195;-65
2022/12/08 04:43:54;;;;;;;40.30;28.70;;;3.90;1.00;;;;;;5040287;28;20660;-64
2022/12/08 04:46:21;;;;;;;43.80;29.33;;;3.90;4.90;;;;;;5039645;28;20676;-66
2022/12/08 04:48:48;;;;;;;43.07;28.73;;;3.90;9.10;;;;;;5037104;28;20235;-66
2022/12/08 04:51:17;;;;;;;38.60;28.77;;;3.90;10.20;;;;;;5037076;28;20187;-65
2022/12/08 04:53:45;;;;;;;42.93;30.50;;;3.90;19.40;;;;;;5036456;28;20193;-64
2022/12/08 04:56:14;;;;;;;46.33;28.87;;;3.90;30.60;;;;;;5037410;28;20262;-65
2022/12/08 04:58:41;;;;;;;44.00;28.50;;;4.00;29.20;;;;;;5035058;28;20190;-64
2022/12/08 05:01:08;;;;;;;42.10;29.83;;;3.90;30.00;;;;;;5033874;28;20546;-65
2022/12/08 05:03:36;;;;;;;47.27;30.37;;;3.90;36.60;;;;;;5036319;28;20227;-65
2022/12/08 05:06:03;;;;;;;40.70;29.43;;;3.90;51.50;;;;;;5044910;28;20239;-65
2022/12/08 05:08:31;;;;;;;44.53;28.83;;;3.90;57.10;;;;;;5057492;28;20255;-64
2022/12/08 05:11:04;;;;;;;43.83;29.40;;;3.90;62.00;;;;;;5059027;28;20191;-64
2022/12/08 05:13:32;;;;;;;41.40;28.27;;;3.90;68.10;;;;;;5057175;28;20192;-64
2022/12/08 05:16:04;;;;;;;51.10;29.80;;;3.90;80.80;;;;;;5058015;28;20424;-64
2022/12/08 05:18:33;;;;;;;43.80;29.90;;;3.90;88.00;;;;;;5055765;28;20198;-65
2022/12/08 05:21:01;;;;;;;43.03;28.57;;;3.90;95.70;;;;;;5039883;28;20194;-66
2022/12/08 05:23:29;;;;;;;44.00;28.33;;;3.90;99.00;;;;;;5059209;28;20198;-66
2022/12/08 05:25:56;;;;;;;42.43;29.67;;;3.90;99.90;;;;;;5059254;28;20198;-67
2022/12/08 05:28:24;;;;;;;44.33;28.73;;;3.90;99.90;;;;;;5032360;28;20203;-66
2022/12/08 05:31:09;;;;;;;49.93;28.93;;;3.90;99.90;;;;;;5049193;28;20278;-64
2022/12/08 05:33:36;;;;;;;43.27;29.47;;;3.90;99.90;;;;;;5055706;28;20202;-64
2022/12/08 05:36:03;;;;;;;44.70;29.17;;;3.90;99.90;;;;;;5046392;28;20211;-65
2022/12/08 05:38:31;;;;;;;47.90;31.10;;;3.90;99.90;;;;;;5056856;28;20222;-63
2022/12/08 05:40:58;;;;;;;46.30;31.20;;;3.90;99.90;;;;;;5056813;28;20273;-64
2022/12/08 05:43:25;;;;;;;49.60;33.57;;;3.90;99.90;;;;;;5056782;28;20195;-65
2022/12/08 05:45:52;;;;;;;46.57;30.87;;;3.90;99.90;;;;;;5051301;28;20319;-66
2022/12/08 05:48:19;;;;;;;47.23;29.07;;;3.90;99.90;;;;;;5057687;28;20196;-65
2022/12/08 05:50:47;;;;;;;45.20;30.20;;;3.90;99.90;;;;;;5057941;28;20246;-66
2022/12/08 05:53:16;;;;;;;44.47;28.30;;;3.90;99.90;;;;;;5058247;28;20774;-66
2022/12/08 05:55:43;;;;;;;44.13;27.53;;;3.90;99.90;;;;;;5056354;28;20585;-66
2022/12/08 05:58:16;;;;;;;43.93;29.37;;;3.90;99.90;;;;;;5058251;28;20203;-65
2022/12/08 06:00:44;;;;;;;41.53;27.90;;;3.90;99.90;;;;;;5055305;28;20187;-66
2022/12/08 06:03:11;;;;;;;41.33;27.33;;;3.90;99.90;;;;;;5047349;28;20571;-65
2022/12/08 06:05:39;;;;;;;41.40;28.17;;;3.90;99.90;;;;;;5055587;28;20237;-66
2022/12/08 06:08:07;;;;;;;49.30;29.53;;;3.90;99.90;;;;;;5046277;28;20204;-66
2022/12/08 06:10:34;;;;;;;41.27;27.60;;;3.90;99.90;;;;;;5049150;28;20237;-67
2022/12/08 06:13:01;;;;;;;41.23;26.40;;;3.90;99.90;;;;;;5055173;28;20643;-66
2022/12/08 06:15:28;;;;;;;39.70;27.43;;;3.90;99.90;;;;;;5050337;28;20203;-66
2022/12/08 06:17:55;;;;;;;40.00;26.50;;;3.90;99.90;;;;;;5047371;28;20199;-66
2022/12/08 06:20:22;;;;;;;40.77;26.87;;;3.90;99.90;;;;;;5058145;28;20195;-64
2022/12/08 06:22:48;;;;;;;40.47;26.83;;;3.80;99.90;;;;;;5048367;28;20270;-64
2022/12/08 06:25:15;;;;;;;35.47;26.17;;;3.90;99.90;;;;;;5058087;28;20232;-64
2022/12/08 06:27:42;;;;;;;40.07;27.23;;;3.80;99.90;;;;;;5055755;28;20231;-66
2022/12/08 06:30:10;;;;;;;36.10;23.97;;;3.80;99.90;;;;;;5040193;28;20207;-66
2022/12/08 06:32:37;;;;;;;35.53;25.03;;;3.90;99.90;;;;;;5058027;28;20258;-66
2022/12/08 06:35:04;;;;;;;38.37;26.80;;;3.90;99.90;;;;;;5056763;28;20195;-66
2022/12/08 06:37:31;;;;;;;35.90;24.90;;;3.80;99.90;;;;;;5058095;28;20194;-66
2022/12/08 06:39:58;;;;;;;38.73;24.77;;;3.80;99.90;;;;;;5046781;28;20192;-66
2022/12/08 06:42:43;;;;;;;34.33;24.30;;;3.80;99.90;;;;;;5045759;28;20279;-66
2022/12/08 06:45:12;;;;;;;40.80;25.27;;;3.80;99.90;;;;;;5061166;28;20282;-65
2022/12/08 06:47:39;;;;;;;37.37;24.50;;;3.80;99.90;;;;;;5061577;28;20298;-65
2022/12/08 06:50:08;;;;;;;32.90;22.10;;;3.80;99.90;;;;;;5059853;28;20594;-66
2022/12/08 06:52:35;;;;;;;27.70;19.47;;;3.70;99.90;;;;;;5040643;28;20667;-65
2022/12/08 06:55:15;;;;;;;27.90;19.53;;;3.70;99.90;;;;;;5041710;28;20628;-66
2022/12/08 06:58:02;;;;;;;26.73;19.37;;;3.70;1.00;;;;;;5052795;28;20195;-66
2022/12/08 07:00:29;;;;;;;26.60;19.13;;;3.70;99.90;;;;;;5045962;28;20265;-65
2022/12/08 07:02:56;;;;;;;27.60;20.07;;;3.70;99.90;;;;;;5042566;28;20856;-65
2022/12/08 07:05:23;;;;;;;27.27;19.63;;;3.70;1.00;;;;;;5033333;28;20255;-65
2022/12/08 07:07:50;;;;;;;28.20;19.40;;;3.60;1.00;;;;;;5052571;28;20222;-65
2022/12/08 07:10:17;;;;;;;28.30;20.67;;;3.50;1.00;;;;;;5046240;28;20848;-65
2022/12/08 07:12:44;;;;;;;33.87;24.00;;;3.60;99.90;;;;;;5047446;28;20198;-65
2022/12/08 07:15:11;;;;;;;35.83;24.20;;;3.60;99.90;;;;;;5043199;28;20210;-65
2022/12/08 07:17:38;;;;;;;28.73;21.07;;;3.60;99.90;;;;;;5058694;28;20191;-65
2022/12/08 07:20:06;;;;;;;28.47;21.20;;;3.60;99.90;;;;;;5048119;28;20183;-65
2022/12/08 07:22:33;;;;;;;29.23;20.70;;;3.60;99.90;;;;;;5060274;28;20234;-65
2022/12/08 07:25:00;;;;;;;31.87;23.70;;;3.60;99.90;;;;;;5058730;28;20264;-65
2022/12/08 07:27:27;;;;;;;33.80;22.43;;;3.70;99.90;;;;;;5059349;28;20568;-65
2022/12/08 07:29:54;;;;;;;35.63;23.57;;;3.60;99.90;;;;;;5048402;28;20901;-66
2022/12/08 07:32:21;;;;;;;31.17;21.90;;;3.70;99.90;;;;;;5056806;28;20309;-65
2022/12/08 07:34:48;;;;;;;31.80;22.37;;;3.60;99.90;;;;;;5056828;28;20454;-65
2022/12/08 07:37:15;;;;;;;33.17;24.23;;;3.70;99.90;;;;;;5038750;28;20211;-65
2022/12/08 07:39:43;;;;;;;40.57;25.90;;;3.70;99.90;;;;;;5059984;28;20314;-65
2022/12/08 07:42:10;;;;;;;35.10;25.03;;;3.70;99.90;;;;;;5041512;28;20195;-65
2022/12/08 07:44:37;;;;;;;37.37;25.97;;;3.70;99.90;;;;;;5054153;28;20183;-65
2022/12/08 07:47:04;;;;;;;39.43;25.23;;;3.70;99.90;;;;;;5043225;28;20187;-65
2022/12/08 07:49:31;;;;;;;38.00;25.70;;;3.60;1.00;;;;;;5059128;28;20200;-68
2022/12/08 07:51:58;;;;;;;39.33;27.03;;;3.70;43.50;;;;;;5059899;28;20195;-66
2022/12/08 07:54:25;;;;;;;39.23;28.10;;;3.60;1.00;;;;;;5058337;28;20624;-66
2022/12/08 07:56:52;;;;;;;38.57;26.53;;;3.70;38.20;;;;;;5059609;28;20207;-67
2022/12/08 07:59:19;;;;;;;42.00;28.60;;;3.70;1.90;;;;;;5045476;28;20198;-65
2022/12/08 08:01:47;;;;;;;42.37;27.97;;;3.70;1.00;;;;;;5058606;28;20195;-66
2022/12/08 08:04:34;;;;;;;44.33;31.20;;;3.70;1.00;;;;;;5039101;28;20564;-68
2022/12/08 08:07:01;;;;;;;48.93;31.60;;;3.70;1.00;;;;;;5039864;28;21259;-65
2022/12/08 08:09:28;;;;;;;41.57;28.10;;;3.70;1.00;;;;;;5062484;28;20187;-65
2022/12/08 08:11:55;;;;;;;44.43;27.90;;;3.70;1.00;;;;;;5061177;28;20199;-66
2022/12/08 08:14:42;;;;;;;44.17;29.13;;;3.70;1.00;;;;;;5048808;28;20273;-65
2022/12/08 08:17:09;;;;;;;39.87;26.87;;;3.70;1.00;;;;;;5045654;28;20203;-65
2022/12/08 08:19:36;;;;;;;35.63;25.37;;;3.70;1.00;;;;;;5048977;28;20229;-67
2022/12/08 08:22:03;;;;;;;35.30;23.90;;;3.70;1.00;;;;;;5043376;28;20199;-66
2022/12/08 08:24:30;;;;;;;34.87;24.03;;;3.70;1.00;;;;;;5042654;28;20194;-66
2022/12/08 08:26:57;;;;;;;32.47;23.03;;;3.70;1.00;;;;;;5031436;28;20197;-67
2022/12/08 08:29:24;;;;;;;36.37;25.00;;;3.70;1.00;;;;;;5060180;28;20626;-65
2022/12/08 08:31:50;;;;;;;39.20;26.00;;;3.70;1.00;;;;;;5046198;28;20187;-66
2022/12/08 08:34:17;;;;;;;44.27;28.63;;;3.70;1.00;;;;;;5059084;28;20260;-66
2022/12/08 08:36:44;;;;;;;46.60;29.90;;;3.70;1.00;;;;;;5043089;28;20206;-66
2022/12/08 08:39:12;;;;;;;45.77;30.90;;;3.60;1.00;;;;;;5034827;28;20724;-65
2022/12/08 08:41:40;;;;;;;45.97;31.57;;;3.70;1.00;;;;;;5045582;28;20307;-65
2022/12/08 08:44:07;;;;;;;43.70;29.73;;;3.70;1.00;;;;;;5052246;28;20742;-65
2022/12/08 08:46:34;;;;;;;35.07;25.40;;;3.60;1.00;;;;;;5045204;28;20400;-65
2022/12/08 08:49:01;;;;;;;30.30;22.77;;;3.60;1.00;;;;;;5044831;28;20406;-65
2022/12/08 08:51:28;;;;;;;28.33;21.30;;;3.60;1.00;;;;;;5058796;28;20298;-70
2022/12/08 08:53:56;;;;;;;27.57;20.60;;;3.50;1.00;;;;;;5039223;28;20205;-65
2022/12/08 08:56:23;;;;;;;23.80;18.23;;;3.50;1.00;;;;;;5058255;28;20683;-65
2022/12/08 08:58:51;;;;;;;22.37;17.07;;;3.50;1.00;;;;;;5056432;28;20184;-65
2022/12/08 09:01:23;;;;;;;22.63;17.53;;;3.50;1.00;;;;;;5037850;28;20533;-65
2022/12/08 09:03:51;;;;;;;22.63;16.70;;;3.50;1.00;;;;;;5054663;28;20258;-65
2022/12/08 09:06:18;;;;;;;21.00;16.57;;;3.60;1.00;;;;;;5054258;28;20329;-65
2022/12/08 09:08:47;;;;;;;23.37;17.47;;;3.70;1.00;;;;;;5036619;28;20821;-65
2022/12/08 09:11:17;;;;;;;21.17;17.00;;;3.70;1.00;;;;;;5045379;28;20218;-65
2022/12/08 09:13:47;;;;;;;20.67;17.40;;;3.70;1.00;;;;;;5044309;28;20194;-65
2022/12/08 09:16:14;;;;;;;21.13;15.33;;;3.70;1.00;;;;;;5055393;28;20207;-65
2022/12/08 09:18:41;;;;;;;20.37;14.97;;;3.70;1.00;;;;;;5054921;28;20191;-65
2022/12/08 09:21:13;;;;;;;20.43;15.63;;;3.70;1.00;;;;;;5057984;28;20187;-65
2022/12/08 09:23:41;;;;;;;22.13;16.73;;;3.70;1.00;;;;;;5045216;28;20187;-66
2022/12/08 09:26:08;;;;;;;20.40;16.53;;;3.70;1.00;;;;;;5059546;28;20395;-65
2022/12/08 09:28:35;;;;;;;17.63;14.20;;;3.80;1.00;;;;;;5056898;28;20202;-67
2022/12/08 09:31:03;;;;;;;17.27;13.90;;;3.80;1.00;;;;;;5036987;28;20196;-65
2022/12/08 09:33:30;;;;;;;14.33;11.73;;;3.90;1.00;;;;;;5056711;28;20244;-65
2022/12/08 09:36:02;;;;;;;14.80;12.03;;;3.80;1.00;;;;;;5055365;28;20298;-65
2022/12/08 09:38:29;;;;;;;14.57;11.20;;;3.90;1.00;;;;;;5054605;28;20262;-65
2022/12/08 09:40:57;;;;;;;10.87;9.00;;;3.90;1.00;;;;;;5039146;28;20213;-65
2022/12/08 09:43:47;;;;;;;11.43;8.37;;;3.90;99.90;;;;;;5055442;28;20230;-66
2022/12/08 09:46:16;;;;;;;12.27;9.47;;;3.80;99.90;;;;;;5030529;28;20225;-65
2022/12/08 09:48:54;;;;;;;9.40;8.07;;;3.80;99.90;;;;;;5056189;28;20206;-66
2022/12/08 09:51:30;;;;;;;11.43;9.20;;;3.90;99.90;;;;;;5055102;28;20253;-65
2022/12/08 09:54:02;;;;;;;11.40;8.57;;;3.90;99.90;;;;;;5056052;28;20533;-65
2022/12/08 09:56:32;;;;;;;9.77;7.17;;;3.90;99.90;;;;;;5055751;28;20239;-66
2022/12/08 09:59:02;;;;;;;7.70;6.43;;;3.90;99.90;;;;;;5037160;28;20723;-66
2022/12/08 10:01:40;;;;;;;10.47;7.33;;;3.80;99.90;;;;;;5057819;28;20233;-65
2022/12/08 10:04:33;;;;;;;7.80;5.83;;;3.80;99.90;;;;;;5024302;28;20216;-65
2022/12/08 10:07:40;;;;;;;5.77;4.97;;;3.70;99.90;;;;;;5016092;28;20244;-65
2022/12/08 10:10:36;;;;;;;4.90;4.10;;;3.70;99.90;;;;;;5037085;28;20203;-66
2022/12/08 10:13:17;;;;;;;6.77;5.83;;;3.70;99.90;;;;;;5038968;28;20203;-66
2022/12/08 10:16:10;;;;;;;5.53;4.60;;;3.60;99.90;;;;;;5053618;28;20745;-66
2022/12/08 10:18:45;;;;;;;5.40;4.63;;;3.50;99.90;;;;;;5055549;28;20244;-66
2022/12/08 10:21:19;;;;;;;6.83;5.17;;;3.60;99.90;;;;;;5041542;28;20191;-66
2022/12/08 10:24:01;;;;;;;6.63;5.23;;;3.60;99.90;;;;;;5039391;28;20192;-66
2022/12/08 10:26:31;;;;;;;9.80;6.90;;;3.50;99.90;;;;;;5043322;28;20191;-66
2022/12/08 10:29:01;;;;;;;7.57;5.47;;;3.50;99.90;;;;;;5041968;28;20272;-66
2022/12/08 10:31:30;;;;;;;5.23;4.73;;;3.50;99.90;;;;;;5042067;28;20227;-66
2022/12/08 10:34:11;;;;;;;5.33;4.60;;;3.50;99.90;;;;;;5041028;28;20219;-66
2022/12/08 10:36:47;;;;;;;5.03;4.53;;;3.60;99.90;;;;;;5043379;28;20237;-66
2022/12/08 10:39:38;;;;;;;4.53;4.13;;;3.60;99.90;;;;;;5058692;28;20561;-68
2022/12/08 10:42:13;;;;;;;6.53;4.80;;;3.60;99.90;;;;;;5040011;28;20202;-66
2022/12/08 10:44:55;;;;;;;5.03;4.50;;;3.50;99.90;;;;;;5037822;28;20289;-66
2022/12/08 10:47:24;;;;;;;7.30;5.37;;;3.60;99.90;;;;;;5041618;28;20590;-66
2022/12/08 10:50:09;;;;;;;8.90;6.67;;;3.50;99.90;;;;;;5057068;28;20227;-66
2022/12/08 10:52:40;;;;;;;17.10;11.67;;;3.50;99.90;;;;;;5039834;28;20672;-66
2022/12/08 10:55:17;;;;;;;36.60;20.57;;;3.50;1.00;;;;;;5040949;28;20213;-65
2022/12/08 10:57:44;;;;;;;8.23;5.77;;;3.50;1.00;;;;;;5042118;28;20211;-66
2022/12/08 11:00:20;;;;;;;6.87;5.63;;;3.60;1.00;;;;;;5057030;28;20203;-66
2022/12/08 11:03:00;;;;;;;8.37;6.87;;;3.60;1.00;;;;;;5041416;28;20245;-66
2022/12/08 11:05:34;;;;;;;7.20;6.00;;;3.60;99.90;;;;;;5045973;28;20626;-65
2022/12/08 11:08:04;;;;;;;8.47;7.20;;;3.60;1.00;;;;;;5048494;28;20195;-66
2022/12/08 11:10:42;;;;;;;6.80;5.50;;;3.60;1.00;;;;;;5057777;28;20851;-66
2022/12/08 11:13:22;;;;;;;9.03;6.90;;;3.60;99.90;;;;;;5061001;28;20287;-66
2022/12/08 11:15:50;;;;;;;7.90;6.17;;;3.60;1.00;;;;;;5059683;28;20248;-66
2022/12/08 11:18:30;;;;;;;8.13;5.90;;;3.60;99.90;;;;;;5042814;28;20235;-66
2022/12/08 11:21:01;;;;;;;6.40;5.80;;;3.70;1.00;;;;;;5048228;28;20203;-66
2022/12/08 11:23:28;;;;;;;6.13;5.53;;;3.70;99.90;;;;;;5058701;28;20225;-66
2022/12/08 11:26:01;;;;;;;8.97;6.13;;;3.70;99.90;;;;;;5041157;28;20290;-66
2022/12/08 11:28:28;;;;;;;7.23;6.17;;;3.70;99.90;;;;;;5056614;28;20202;-66
2022/12/08 11:31:18;;;;;;;7.13;6.43;;;3.70;99.90;;;;;;5046082;28;20373;-72
2022/12/08 11:33:47;;;;;;;8.17;6.60;;;3.70;99.90;;;;;;5054975;28;20209;-65
2022/12/08 11:36:15;;;;;;;12.30;10.60;;;3.80;1.00;;;;;;5060076;28;20199;-66
2022/12/08 11:38:46;;;;;;;7.73;6.90;;;3.90;1.00;;;;;;5060329;28;20631;-66
2022/12/08 11:41:17;;;;;;;7.10;6.13;;;3.90;99.90;;;;;;5045672;28;20187;-66
2022/12/08 11:43:56;;;;;;;7.30;6.40;;;3.90;99.90;;;;;;5039448;28;20201;-66
2022/12/08 11:46:39;;;;;;;7.50;6.67;;;3.90;99.90;;;;;;5050676;28;20236;-69
2022/12/08 11:49:12;;;;;;;7.53;6.73;;;3.90;99.90;;;;;;5057215;28;20211;-65
2022/12/08 11:52:04;;;;;;;7.33;6.63;;;3.90;99.90;;;;;;5056553;28;20200;-65
2022/12/08 11:54:56;;;;;;;8.93;7.73;;;3.90;99.90;;;;;;5043526;28;20230;-65
2022/12/08 11:57:25;;;;;;;9.00;7.47;;;3.90;99.90;;;;;;5041244;28;20465;-65
2022/12/08 11:59:55;;;;;;;9.07;7.77;;;4.00;99.90;;;;;;5057418;28;20226;-66
2022/12/08 12:02:28;;;;;;;10.10;8.77;;;4.00;99.90;;;;;;5057853;28;20187;-66
2022/12/08 12:05:08;;;;;;;9.60;8.07;;;4.10;99.90;;;;;;5058125;28;20710;-65
2022/12/08 12:08:02;;;;;;;10.83;8.90;;;4.00;99.90;;;;;;5059879;28;20276;-65
2022/12/08 12:10:32;;;;;;;11.60;8.80;;;4.10;99.90;;;;;;5057523;28;20191;-65
2022/12/08 12:13:40;;;;;;;9.63;8.63;;;4.10;99.90;;;;;;5055539;28;20229;-65
2022/12/08 12:16:25;;;;;;;9.00;8.10;;;4.20;99.90;;;;;;5040975;28;20666;-65
2022/12/08 12:19:00;;;;;;;10.47;9.23;;;4.20;99.90;;;;;;5024881;28;20195;-65
2022/12/08 12:21:33;;;;;;;10.60;9.00;;;4.20;99.90;;;;;;5043355;28;20354;-65
2022/12/08 12:24:09;;;;;;;12.90;9.30;;;4.30;99.90;;;;;;5058497;28;20195;-65
2022/12/08 12:27:09;;;;;;;12.37;9.07;;;4.30;99.90;;;;;;5042097;28;20583;-66
2022/12/08 12:29:43;;;;;;;11.03;9.27;;;4.30;99.90;;;;;;5043605;28;20215;-68
2022/12/08 12:32:11;;;;;;;9.67;8.67;;;4.20;99.90;;;;;;5059606;28;20194;-66
2022/12/08 12:34:52;;;;;;;12.30;9.23;;;4.10;99.90;;;;;;5058409;28;20183;-66
2022/12/08 12:37:26;;;;;;;11.03;8.87;;;4.20;99.90;;;;;;5042281;28;20206;-66
2022/12/08 12:40:03;;;;;;;11.37;9.57;;;4.20;99.90;;;;;;5057896;28;20222;-66
2022/12/08 12:42:39;;;;;;;11.13;9.40;;;4.30;99.90;;;;;;5055466;28;20202;-66
2022/12/08 12:45:29;;;;;;;11.27;9.33;;;4.40;99.90;;;;;;5058511;28;20204;-67
2022/12/08 12:47:57;;;;;;;11.00;9.57;;;4.50;99.90;;;;;;5039412;28;20213;-67
2022/12/08 12:50:33;;;;;;;10.00;8.83;;;4.50;99.90;;;;;;5048249;28;20272;-66
2022/12/08 12:53:02;;;;;;;11.13;9.87;;;4.50;99.90;;;;;;5060096;28;20202;-67
2022/12/08 12:55:52;;;;;;;12.10;10.80;;;4.50;99.90;;;;;;5041188;28;20194;-67
2022/12/08 12:58:28;;;;;;;14.13;10.93;;;4.60;99.90;;;;;;5057019;28;20206;-66
2022/12/08 13:01:11;;;;;;;14.80;11.27;;;4.60;99.90;;;;;;5055907;28;20187;-71
2022/12/08 13:03:44;;;;;;;13.50;12.10;;;4.60;99.90;;;;;;5057846;28;20215;-67
2022/12/08 13:06:22;;;;;;;16.10;11.37;;;4.60;99.90;;;;;;5045713;28;20356;-67
2022/12/08 13:08:55;;;;;;;17.17;14.50;;;4.60;99.90;;;;;;5055035;28;20394;-66
2022/12/08 13:11:24;;;;;;;20.03;15.77;;;4.30;99.90;;;;;;5055265;28;20244;-67
2022/12/08 13:14:02;;;;;;;24.27;19.30;;;4.20;99.90;;;;;;5037461;28;20204;-66
2022/12/08 13:16:38;;;;;;;24.27;18.70;;;4.20;99.90;;;;;;5037525;28;20187;-69